createdAt,value
2022-11-03T00:01:01.786Z,62.45
2022-11-03T00:03:29.338Z,62.22
2022-11-03T00:06:06.320Z,62.89
2022-11-03T00:08:33.970Z,62.65
2022-11-03T00:11:01.938Z,62.84
2022-11-03T00:13:29.535Z,63.18
2022-11-03T00:15:57.082Z,62.72
2022-11-03T00:18:24.639Z,63.03
2022-11-03T00:20:52.208Z,62.98
2022-11-03T00:23:20.226Z,62.72
2022-11-03T00:25:47.785Z,63.33
2022-11-03T00:28:15.662Z,63.58
2022-11-03T00:30:43.276Z,63.55
2022-11-03T00:33:10.839Z,63.63
2022-11-03T00:35:38.813Z,63.70
2022-11-03T00:38:06.387Z,63.75
2022-11-03T00:40:33.900Z,63.81
2022-11-03T00:43:01.530Z,63.97
2022-11-03T00:45:29.118Z,64.02
2022-11-03T00:48:10.847Z,63.76
2022-11-03T00:50:38.375Z,63.74
2022-11-03T00:53:06.069Z,64.06
2022-11-03T00:55:33.903Z,64.63
2022-11-03T00:58:01.415Z,64.17
2022-11-03T01:00:29.281Z,63.85
2022-11-03T01:02:56.880Z,64.43
2022-11-03T01:05:41.717Z,64.80
2022-11-03T01:08:09.786Z,64.75
2022-11-03T01:10:37.752Z,64.82
2022-11-03T01:13:05.523Z,64.55
2022-11-03T01:15:33.311Z,65.11
2022-11-03T01:18:00.839Z,64.89
2022-11-03T01:20:28.835Z,64.67
2022-11-03T01:22:56.765Z,64.99
2022-11-03T01:25:25.563Z,64.96
2022-11-03T01:27:53.125Z,64.57
2022-11-03T01:30:21.022Z,64.90
2022-11-03T01:32:50.397Z,64.71
2022-11-03T01:35:18.320Z,65.27
2022-11-03T01:37:45.881Z,65.35
2022-11-03T01:40:13.406Z,64.92
2022-11-03T01:42:40.947Z,64.81
2022-11-03T01:45:09.537Z,64.87
2022-11-03T01:47:37.483Z,64.56
2022-11-03T01:50:05.015Z,64.68
2022-11-03T01:52:34.161Z,65.06
2022-11-03T01:55:01.683Z,65.17
2022-11-03T01:57:29.388Z,65.08
2022-11-03T01:59:58.381Z,65.11
2022-11-03T02:02:26.038Z,65.52
2022-11-03T02:04:53.598Z,65.10
2022-11-03T02:07:21.162Z,65.58
2022-11-03T02:09:49.514Z,65.61
2022-11-03T02:12:17.426Z,66.03
2022-11-03T02:14:45.293Z,65.39
2022-11-03T02:17:12.836Z,65.62
2022-11-03T02:19:40.361Z,66.09
2022-11-03T02:22:08.008Z,66.19
2022-11-03T02:24:35.979Z,65.75
2022-11-03T02:27:03.475Z,66.26
2022-11-03T02:29:31.056Z,66.34
2022-11-03T02:31:58.593Z,66.41
2022-11-03T02:34:26.880Z,66.40
2022-11-03T02:36:55.061Z,66.68
2022-11-03T02:39:22.609Z,66.50
2022-11-03T02:41:50.123Z,66.03
2022-11-03T02:44:17.694Z,67.07
2022-11-03T02:46:45.283Z,67.21
2022-11-03T02:49:13.269Z,67.15
2022-11-03T02:51:40.846Z,66.79
2022-11-03T02:54:08.392Z,67.16
2022-11-03T02:56:35.916Z,67.26
2022-11-03T02:59:06.498Z,67.28
2022-11-03T03:01:35.252Z,66.88
2022-11-03T03:04:02.929Z,67.18
2022-11-03T03:06:30.615Z,67.91
2022-11-03T03:08:58.421Z,67.33
2022-11-03T03:11:39.016Z,67.65
2022-11-03T03:14:07.228Z,67.70
2022-11-03T03:16:34.808Z,67.33
2022-11-03T03:19:02.366Z,67.17
2022-11-03T03:21:29.892Z,67.67
2022-11-03T03:23:57.431Z,67.89
2022-11-03T03:26:25.009Z,67.45
2022-11-03T03:28:52.561Z,67.92
2022-11-03T03:31:20.120Z,67.91
2022-11-03T03:33:48.084Z,67.58
2022-11-03T03:36:16.150Z,68.37
2022-11-03T03:38:43.709Z,68.16
2022-11-03T03:41:11.281Z,68.40
2022-11-03T03:43:38.836Z,67.93
2022-11-03T03:46:06.350Z,68.08
2022-11-03T03:48:34.231Z,68.16
2022-11-03T03:51:01.763Z,67.78
2022-11-03T03:53:29.323Z,67.91
2022-11-03T03:55:56.971Z,67.86
2022-11-03T03:58:24.516Z,68.18
2022-11-03T04:00:52.574Z,68.18
2022-11-03T04:03:20.513Z,68.52
2022-11-03T04:05:48.079Z,68.07
2022-11-03T04:08:15.623Z,68.01
2022-11-03T04:11:04.034Z,68.53
2022-11-03T04:13:48.862Z,68.52
2022-11-03T04:16:33.988Z,68.55
2022-11-03T04:19:18.934Z,68.00
2022-11-03T04:22:06.625Z,68.13
2022-11-03T04:24:34.456Z,68.21
2022-11-03T04:27:01.991Z,68.30
2022-11-03T04:29:29.553Z,68.46
2022-11-03T04:31:57.092Z,68.08
2022-11-03T04:34:24.965Z,67.88
2022-11-03T04:36:52.525Z,68.36
2022-11-03T04:39:20.045Z,68.37
2022-11-03T04:41:47.624Z,67.84
2022-11-03T04:44:15.176Z,68.10
2022-11-03T04:46:46.237Z,68.13
2022-11-03T04:49:13.773Z,68.13
2022-11-03T04:51:41.367Z,68.08
2022-11-03T04:54:08.875Z,67.97
2022-11-03T04:56:36.455Z,68.01
2022-11-03T04:59:04.271Z,68.15
2022-11-03T05:01:31.921Z,67.88
2022-11-03T05:03:59.612Z,68.21
2022-11-03T05:06:27.180Z,68.44
2022-11-03T05:08:54.704Z,68.54
2022-11-03T05:11:23.549Z,68.11
2022-11-03T05:13:51.144Z,67.28
2022-11-03T05:16:19.031Z,67.94
2022-11-03T05:18:46.581Z,67.77
2022-11-03T05:21:14.196Z,67.76
2022-11-03T05:23:42.633Z,67.38
2022-11-03T05:26:10.205Z,67.75
2022-11-03T05:28:38.110Z,67.58
2022-11-03T05:31:05.650Z,67.38
2022-11-03T05:33:33.207Z,68.20
2022-11-03T05:36:02.591Z,67.86
2022-11-03T05:38:30.140Z,67.36
2022-11-03T05:40:57.728Z,67.92
2022-11-03T05:43:25.354Z,67.77
2022-11-03T05:45:52.994Z,67.77
2022-11-03T05:48:21.515Z,67.59
2022-11-03T05:50:49.411Z,67.59
2022-11-03T05:53:16.961Z,67.84
2022-11-03T05:55:44.533Z,67.79
2022-11-03T05:58:12.176Z,67.80
2022-11-03T06:00:47.124Z,67.23
2022-11-03T06:03:16.204Z,67.46
2022-11-03T06:05:43.795Z,67.32
2022-11-03T06:08:11.378Z,67.64
2022-11-03T06:10:39.081Z,67.47
2022-11-03T06:13:10.253Z,67.57
2022-11-03T06:15:38.897Z,67.71
2022-11-03T06:18:06.529Z,67.51
2022-11-03T06:20:34.102Z,67.12
2022-11-03T06:23:01.693Z,67.40
2022-11-03T06:25:30.956Z,67.53
2022-11-03T06:27:58.807Z,67.44
2022-11-03T06:30:26.610Z,67.59
2022-11-03T06:32:54.307Z,67.21
2022-11-03T06:35:22.258Z,68.01
2022-11-03T06:37:50.687Z,67.52
2022-11-03T06:40:18.314Z,67.44
2022-11-03T06:42:45.909Z,67.94
2022-11-03T06:45:13.490Z,67.14
2022-11-03T06:47:41.166Z,67.88
2022-11-03T06:50:10.167Z,67.50
2022-11-03T06:52:37.807Z,67.49
2022-11-03T06:55:05.518Z,66.98
2022-11-03T06:57:33.374Z,66.80
2022-11-03T07:00:20.407Z,67.16
2022-11-03T07:02:50.545Z,67.55
2022-11-03T07:05:18.089Z,67.46
2022-11-03T07:07:45.651Z,66.99
2022-11-03T07:10:13.327Z,67.34
2022-11-03T07:12:40.944Z,66.71
2022-11-03T07:15:09.492Z,66.69
2022-11-03T07:17:37.471Z,67.37
2022-11-03T07:20:05.225Z,66.87
2022-11-03T07:22:32.793Z,67.00
2022-11-03T07:25:00.452Z,66.81
2022-11-03T07:27:29.988Z,66.82
2022-11-03T07:29:57.598Z,67.06
2022-11-03T07:32:25.222Z,67.23
2022-11-03T07:34:52.900Z,66.82
2022-11-03T07:37:20.539Z,66.27
2022-11-03T07:39:49.280Z,66.52
2022-11-03T07:42:16.943Z,66.75
2022-11-03T07:44:44.634Z,66.47
2022-11-03T07:47:12.369Z,66.15
2022-11-03T07:49:40.041Z,66.17
2022-11-03T07:52:08.576Z,66.78
2022-11-03T07:54:36.253Z,66.35
2022-11-03T07:57:03.838Z,66.39
2022-11-03T07:59:31.645Z,66.52
2022-11-03T08:02:00.097Z,65.89
2022-11-03T08:04:30.265Z,66.27
2022-11-03T08:06:58.141Z,65.76
2022-11-03T08:09:26.066Z,66.48
2022-11-03T08:11:53.748Z,66.31
2022-11-03T08:14:21.445Z,65.90
2022-11-03T08:16:50.824Z,66.00
2022-11-03T08:19:18.588Z,66.20
2022-11-03T08:21:46.280Z,65.88
2022-11-03T08:24:14.351Z,65.47
2022-11-03T08:26:42.087Z,65.27
2022-11-03T08:29:10.580Z,65.59
2022-11-03T08:31:38.387Z,65.08
2022-11-03T08:34:06.112Z,64.97
2022-11-03T08:36:34.387Z,64.56
2022-11-03T08:39:02.176Z,64.89
2022-11-03T08:41:30.443Z,64.72
2022-11-03T08:43:58.186Z,64.15
2022-11-03T08:46:26.114Z,64.18
2022-11-03T08:48:53.935Z,63.53
2022-11-03T08:51:21.691Z,63.61
2022-11-03T08:53:54.147Z,63.29
2022-11-03T08:56:22.590Z,63.95
2022-11-03T08:58:50.659Z,63.69
2022-11-03T09:01:18.455Z,63.66
2022-11-03T09:03:46.257Z,63.75
2022-11-03T09:06:14.619Z,63.64
2022-11-03T09:11:30.245Z,63.40
2022-11-03T09:13:58.099Z,63.18
2022-11-03T09:16:27.104Z,63.13
2022-11-03T09:18:54.836Z,62.63
2022-11-03T09:21:22.591Z,62.53
2022-11-03T09:23:50.386Z,62.88
2022-11-03T09:26:18.258Z,62.16
2022-11-03T09:28:49.952Z,62.34
2022-11-03T09:31:17.668Z,61.53
2022-11-03T09:33:45.607Z,62.14
2022-11-03T09:36:13.431Z,61.51
2022-11-03T09:38:41.077Z,60.55
2022-11-03T09:41:18.772Z,60.58
2022-11-03T09:43:54.646Z,60.60
2022-11-03T09:46:22.462Z,59.42
2022-11-03T09:48:50.345Z,59.06
2022-11-03T09:51:19.374Z,59.81
2022-11-03T09:53:47.142Z,59.10
2022-11-03T09:56:14.931Z,59.09
2022-11-03T09:58:42.807Z,59.10
2022-11-03T10:01:10.631Z,59.37
2022-11-03T10:03:41.083Z,59.01
2022-11-03T10:06:11.104Z,59.36
2022-11-03T10:08:43.283Z,59.28
2022-11-03T10:11:11.086Z,58.52
2022-11-03T10:13:39.630Z,58.70
2022-11-03T10:16:08.026Z,58.72
2022-11-03T10:18:35.817Z,58.44
2022-11-03T10:21:03.604Z,58.47
2022-11-03T10:23:31.342Z,58.05
2022-11-03T10:25:59.825Z,58.13
2022-11-03T10:28:28.815Z,58.41
2022-11-03T10:31:10.662Z,58.30
2022-11-03T10:33:40.888Z,58.33
2022-11-03T10:36:09.145Z,58.69
2022-11-03T10:38:37.303Z,58.84
2022-11-03T10:41:05.352Z,58.91
2022-11-03T10:43:33.159Z,58.15
2022-11-03T10:46:00.889Z,58.65
2022-11-03T10:48:29.642Z,58.88
2022-11-03T10:50:58.129Z,58.37
2022-11-03T10:55:58.796Z,58.69
2022-11-03T10:58:26.673Z,58.49
2022-11-03T11:00:55.895Z,58.83
2022-11-03T11:03:24.400Z,58.29
2022-11-03T11:05:52.157Z,58.93
2022-11-03T11:08:19.983Z,58.73
2022-11-03T11:10:48.078Z,58.28
2022-11-03T11:13:17.952Z,58.22
2022-11-03T11:15:46.262Z,58.54
2022-11-03T11:18:15.073Z,58.15
2022-11-03T11:20:42.908Z,58.23
2022-11-03T11:23:11.005Z,58.11
2022-11-03T11:25:40.572Z,58.32
2022-11-03T11:28:08.850Z,58.25
2022-11-03T11:30:36.674Z,58.62
2022-11-03T11:33:04.876Z,58.31
2022-11-03T11:35:33.111Z,58.57
2022-11-03T11:38:03.031Z,58.70
2022-11-03T11:40:31.279Z,58.53
2022-11-03T11:42:59.094Z,58.39
2022-11-03T11:45:26.832Z,57.98
2022-11-03T11:47:54.804Z,58.00
2022-11-03T11:50:22.702Z,58.10
2022-11-03T11:52:50.774Z,57.61
2022-11-03T11:55:18.699Z,57.52
2022-11-03T11:57:46.984Z,56.88
2022-11-03T12:00:14.948Z,56.60
2022-11-03T12:02:44.980Z,56.00
2022-11-03T12:05:12.959Z,54.54
2022-11-03T12:07:40.725Z,54.22
2022-11-03T12:10:08.698Z,53.97
2022-11-03T12:12:36.987Z,53.23
2022-11-03T12:15:05.010Z,52.96
2022-11-03T12:17:32.969Z,52.99
2022-11-03T12:20:01.105Z,53.46
2022-11-03T12:22:29.420Z,53.32
2022-11-03T12:24:57.221Z,53.24
2022-11-03T12:27:26.553Z,52.95
2022-11-03T12:29:54.907Z,53.18
2022-11-03T12:32:34.012Z,52.63
2022-11-03T12:35:02.643Z,53.11
2022-11-03T12:37:30.651Z,52.73
2022-11-03T12:39:58.340Z,52.56
2022-11-03T12:42:26.357Z,52.02
2022-11-03T12:44:54.188Z,52.43
2022-11-03T12:47:21.938Z,52.57
2022-11-03T12:49:50.570Z,51.99
2022-11-03T12:52:18.524Z,52.14
2022-11-03T12:54:46.501Z,52.26
2022-11-03T12:57:14.849Z,51.97
2022-11-03T12:59:42.727Z,51.76
2022-11-03T13:02:13.748Z,51.71
2022-11-03T13:04:42.127Z,51.95
2022-11-03T13:07:09.976Z,52.18
2022-11-03T13:09:37.838Z,51.90
2022-11-03T13:12:23.277Z,51.32
2022-11-03T13:14:51.524Z,51.58
2022-11-03T13:17:19.316Z,50.73
2022-11-03T13:19:47.103Z,50.73
2022-11-03T13:22:15.135Z,51.09
2022-11-03T13:24:43.095Z,50.73
2022-11-03T13:27:13.023Z,51.37
2022-11-03T13:29:40.975Z,52.08
2022-11-03T13:32:08.708Z,51.77
2022-11-03T13:34:36.713Z,51.70
2022-11-03T13:37:04.962Z,51.35
2022-11-03T13:39:33.365Z,51.52
2022-11-03T13:42:01.811Z,51.95
2022-11-03T13:44:29.549Z,52.52
2022-11-03T13:46:57.300Z,53.02
2022-11-03T13:52:14.723Z,53.49
2022-11-03T14:00:18.232Z,54.44
2022-11-03T14:05:34.162Z,54.42
2022-11-03T14:08:01.992Z,54.31
2022-11-03T14:10:29.861Z,54.94
2022-11-03T14:12:57.188Z,55.07
2022-11-03T14:15:26.477Z,54.86
2022-11-03T14:17:54.465Z,55.08
2022-11-03T14:20:22.478Z,55.12
2022-11-03T14:22:50.665Z,55.20
2022-11-03T14:25:20.859Z,55.73
2022-11-03T14:27:51.029Z,55.31
2022-11-03T14:30:18.994Z,56.33
2022-11-03T14:32:46.931Z,56.19
2022-11-03T14:35:14.850Z,56.46
2022-11-03T14:37:42.986Z,56.26
2022-11-03T14:40:31.618Z,56.42
2022-11-03T14:42:58.727Z,56.37
2022-11-03T14:45:26.852Z,56.60
2022-11-03T14:47:55.031Z,56.82
2022-11-03T14:50:22.943Z,57.35
2022-11-03T14:52:50.792Z,57.25
2022-11-03T14:55:18.626Z,57.34
2022-11-03T14:57:46.429Z,57.57
2022-11-03T15:00:14.522Z,57.39
2022-11-03T15:02:43.648Z,57.79
2022-11-03T15:05:32.484Z,57.76
2022-11-03T15:08:00.550Z,57.74
2022-11-03T15:10:28.831Z,58.09
2022-11-03T15:12:57.620Z,57.27
2022-11-03T15:15:25.669Z,58.02
2022-11-03T15:40:17.132Z,58.17
2022-11-03T15:45:47.762Z,58.17
2022-11-03T15:48:15.544Z,57.85
2022-11-03T15:50:44.572Z,58.14
2022-11-03T15:56:21.734Z,59.22
2022-11-03T15:58:49.835Z,59.73
2022-11-03T16:01:18.212Z,59.99
2022-11-03T16:03:46.288Z,59.98
2022-11-03T16:06:14.307Z,60.66
2022-11-03T16:08:42.034Z,61.04
2022-11-03T16:11:09.955Z,60.87
2022-11-03T16:13:39.783Z,61.39
2022-11-03T16:16:07.755Z,61.50
2022-11-03T16:18:35.796Z,61.43
2022-11-03T16:21:04.047Z,60.98
2022-11-03T16:23:32.351Z,61.95
2022-11-03T16:26:00.523Z,61.73
2022-11-03T16:28:28.464Z,61.80
2022-11-03T16:30:56.253Z,62.02
2022-11-03T16:33:24.172Z,62.18
2022-11-03T16:35:52.140Z,63.01
2022-11-03T16:38:20.437Z,63.96
2022-11-03T16:40:48.494Z,64.60
2022-11-03T16:43:16.655Z,66.01
2022-11-03T16:45:44.434Z,66.53
2022-11-03T16:48:12.297Z,66.75
2022-11-03T16:50:43.044Z,66.59
2022-11-03T16:53:12.611Z,67.70
2022-11-03T16:55:40.527Z,67.96
2022-11-03T16:58:08.442Z,68.08
2022-11-03T17:00:36.375Z,68.31
2022-11-03T17:03:04.681Z,68.80
2022-11-03T17:05:32.975Z,68.87
2022-11-03T17:08:00.880Z,68.62
2022-11-03T17:10:29.334Z,68.62
2022-11-03T17:12:57.110Z,69.36
2022-11-03T17:15:25.633Z,69.16
2022-11-03T17:17:53.468Z,69.27
2022-11-03T17:20:21.345Z,69.57
2022-11-03T17:22:49.212Z,70.10
2022-11-03T17:25:17.042Z,70.30
2022-11-03T17:27:45.843Z,70.42
2022-11-03T17:30:13.802Z,70.77
2022-11-03T17:32:41.649Z,70.99
2022-11-03T17:35:10.193Z,71.18
2022-11-03T17:37:38.130Z,71.46
2022-11-03T17:40:06.928Z,71.38
2022-11-03T17:42:34.749Z,71.92
2022-11-03T17:45:02.978Z,71.53
2022-11-03T17:47:31.914Z,71.85
2022-11-03T17:50:00.862Z,71.55
2022-11-03T17:52:31.290Z,71.53
2022-11-03T17:54:59.125Z,71.37
2022-11-03T17:57:26.934Z,71.79
2022-11-03T17:59:54.986Z,70.97
2022-11-03T18:02:22.909Z,71.42
2022-11-03T18:04:52.482Z,71.36
2022-11-03T18:07:20.702Z,71.01
2022-11-03T18:09:48.433Z,71.70
2022-11-03T18:12:29.979Z,71.58
2022-11-03T18:14:58.204Z,72.37
2022-11-03T18:17:25.987Z,72.40
2022-11-03T18:19:53.915Z,72.23
2022-11-03T18:22:21.694Z,72.30
2022-11-03T18:24:49.538Z,72.98
2022-11-03T18:27:22.688Z,72.72
2022-11-03T18:29:52.820Z,73.13
2022-11-03T18:32:21.019Z,73.23
2022-11-03T18:34:48.961Z,73.12
2022-11-03T18:37:16.768Z,73.08
2022-11-03T18:39:46.854Z,73.36
2022-11-03T18:42:14.651Z,72.95
2022-11-03T18:44:43.247Z,73.02
2022-11-03T18:47:11.257Z,72.84
2022-11-03T18:49:39.060Z,72.64
2022-11-03T18:52:08.259Z,73.16
2022-11-03T18:54:36.468Z,72.68
2022-11-03T18:57:04.262Z,72.29
2022-11-03T18:59:32.295Z,73.10
2022-11-03T19:02:00.339Z,72.80
2022-11-03T19:04:29.966Z,73.18
2022-11-03T19:06:58.749Z,72.84
2022-11-03T19:09:26.562Z,72.48
2022-11-03T19:11:54.380Z,73.10
2022-11-03T19:14:22.220Z,72.94
2022-11-03T19:17:21.324Z,73.42
2022-11-03T19:19:39.948Z,73.69
2022-11-03T19:22:07.810Z,73.59
2022-11-03T19:24:35.598Z,73.09
2022-11-03T19:27:04.209Z,73.25
2022-11-03T19:29:32.043Z,73.55
2022-11-03T19:31:59.885Z,73.93
2022-11-03T19:34:27.717Z,73.35
2022-11-03T19:36:55.853Z,74.07
2022-11-03T19:39:24.782Z,74.40
2022-11-03T19:42:10.140Z,73.82
2022-11-03T19:44:37.928Z,73.72
2022-11-03T19:47:05.792Z,74.36
2022-11-03T19:49:34.624Z,73.85
2022-11-03T19:52:02.356Z,74.18
2022-11-03T19:54:31.242Z,74.07
2022-11-03T19:56:59.314Z,74.10
2022-11-03T19:59:27.299Z,73.90
2022-11-03T20:01:55.669Z,74.48
2022-11-03T20:04:23.500Z,74.07
2022-11-03T20:06:51.420Z,73.88
2022-11-03T20:09:19.732Z,74.24
2022-11-03T20:11:47.569Z,73.81
2022-11-03T20:14:16.694Z,74.23
2022-11-03T20:16:44.508Z,74.16
2022-11-03T20:19:12.650Z,74.73
2022-11-03T20:21:41.259Z,74.75
2022-11-03T20:24:09.125Z,74.77
2022-11-03T20:26:37.399Z,74.63
2022-11-03T20:29:05.314Z,75.26
2022-11-03T20:31:33.166Z,75.22
2022-11-03T20:34:01.093Z,75.20
2022-11-03T20:36:28.916Z,75.19
2022-11-03T20:39:00.059Z,75.68
2022-11-03T20:41:28.024Z,75.41
2022-11-03T20:43:55.802Z,75.70
2022-11-03T20:46:23.568Z,75.43
2022-11-03T20:48:51.483Z,75.41
2022-11-03T20:51:19.717Z,75.49
2022-11-03T20:53:47.832Z,75.47
2022-11-03T20:56:19.431Z,75.27
2022-11-03T20:58:47.736Z,75.39
2022-11-03T21:01:16.228Z,75.87
2022-11-03T21:03:58.801Z,75.95
2022-11-03T21:06:27.305Z,75.93
2022-11-03T21:08:55.451Z,76.13
2022-11-03T21:11:27.717Z,76.32
2022-11-03T21:13:57.411Z,76.54
2022-11-03T21:16:42.523Z,76.18
2022-11-03T21:19:27.601Z,76.24
2022-11-03T21:21:55.313Z,76.29
2022-11-03T21:26:59.279Z,76.91
2022-11-03T21:29:53.351Z,76.42
2022-11-03T21:32:15.058Z,76.62
2022-11-03T21:34:43.070Z,76.61
2022-11-03T21:37:11.561Z,76.53
2022-11-03T21:39:39.424Z,76.37
2022-11-03T21:42:24.363Z,76.65
2022-11-03T21:44:55.791Z,76.39
2022-11-03T21:47:23.442Z,76.76
2022-11-03T21:49:50.054Z,76.79
2022-11-03T21:52:18.000Z,76.20
2022-11-03T21:54:45.801Z,76.60
2022-11-03T21:57:15.177Z,75.98
2022-11-03T21:59:42.856Z,76.19
2022-11-03T22:02:10.651Z,76.17
2022-11-03T22:04:38.431Z,75.67
2022-11-03T22:07:06.767Z,75.39
2022-11-03T22:09:34.714Z,75.63
2022-11-03T22:12:02.440Z,75.74
2022-11-03T22:14:50.133Z,75.80
2022-11-03T22:17:16.763Z,75.38
2022-11-03T22:20:01.869Z,75.45
2022-11-03T22:22:46.808Z,75.54
2022-11-03T22:25:31.869Z,75.39
2022-11-03T22:27:59.857Z,75.55
2022-11-03T22:30:45.176Z,75.84
2022-11-03T22:33:12.886Z,75.31
2022-11-03T22:35:58.225Z,75.40
2022-11-03T22:38:48.494Z,75.62
2022-11-03T22:41:33.709Z,75.75
2022-11-03T22:44:18.806Z,76.06
2022-11-03T22:46:46.403Z,75.83
2022-11-03T22:49:14.635Z,75.67
2022-11-03T22:51:42.272Z,75.17
2022-11-03T22:54:11.715Z,75.95
2022-11-03T22:56:39.292Z,75.77
2022-11-03T22:59:06.832Z,75.90
2022-11-03T23:01:35.874Z,75.87
2022-11-03T23:04:03.851Z,76.42
2022-11-03T23:06:31.542Z,75.85
2022-11-03T23:08:59.147Z,76.02
2022-11-03T23:11:26.703Z,76.58
2022-11-03T23:13:54.641Z,76.85
2022-11-03T23:16:22.248Z,76.41
2022-11-03T23:19:07.314Z,76.97
2022-11-03T23:21:34.914Z,76.53
2022-11-03T23:24:20.456Z,76.98
2022-11-03T23:26:48.070Z,76.48
2022-11-03T23:29:15.680Z,76.99
2022-11-03T23:31:43.544Z,76.87
2022-11-03T23:34:11.155Z,76.83
2022-11-03T23:36:39.157Z,77.04
2022-11-03T23:39:06.815Z,77.04
2022-11-03T23:41:34.394Z,77.75
2022-11-03T23:44:01.934Z,77.70
2022-11-03T23:46:47.249Z,77.49
2022-11-03T23:49:14.789Z,78.29
2022-11-03T23:51:42.731Z,78.12
2022-11-03T23:54:10.319Z,78.14
2022-11-03T23:56:55.503Z,78.80
2022-11-03T23:59:23.096Z,78.70
